Peawanuck, Canada
Current Conditions -  °F | °C
As of 12:00 PM on Saturday 25 Oct 2014 (Local Time) from CYER Reporting Station
Light Rain Light Rain  
Wind Chill: 37°   Ceiling: 300
Heat Index: 43°   Visibility: 1.7mi
Dew Point: 41°   Wind: 9mph
Humidity: 93%   Direction: 320°NW
Pressure: 29.32"   Gusts: 17mph
Location:  55.01°N, 85.42°W
Report Text: CYER 251600Z AUTO 32008G15KT 1 3/4SM -RA BR OVC003 06/05 A2932 RMK PCPN 0.8MM PAST HR SLP930
Loading
Personal Weather Stations






























Interactive Weather Map
Tropical Storm Tracking
New forecast layout! Learn more

10-Day Weather Forecast

Advertisements
Track Severe Weather on mobile